RYR225 EHRD-EHEH
Flight info
| Callsign | RYR225 |
|---|---|
| Flight time | 0h 25m |
| Altitude | 7000 |
| Route | INKET |
| Aircraft | B738/M-SDE2E3FGHIRWXY/LB1 |
Departure
| Time | 2026-05-04 16:39 |
|---|---|
| Airport | Rotterdam The Hague Airport (EHRD) |
Arrival
| Time | 2026-05-04 17:04 |
|---|---|
| Airport | Eindhoven Airport (EHEH) |
| Time | Latitude | Longitude | Altitude | Speed | Heading |
|---|---|---|---|---|---|
| 2026-05-04 16:23 | 51.95140 | 4.43294 | -6 ft | 0 kts | 327° |
| 2026-05-04 16:31 | 51.95156 | 4.43278 | -6 ft | 0 kts | 327° |
| 2026-05-04 16:32 | 51.95164 | 4.43266 | -6 ft | 4 kts | 314° |
| 2026-05-04 16:33 | 51.95129 | 4.43093 | -6 ft | 14 kts | 245° |
| 2026-05-04 16:33 | 51.95108 | 4.43012 | -6 ft | 0 kts | 256° |
| 2026-05-04 16:37 | 51.95107 | 4.42997 | -6 ft | 4 kts | 262° |
| 2026-05-04 16:37 | 51.95123 | 4.42935 | -6 ft | 8 kts | 316° |
| 2026-05-04 16:37 | 51.95244 | 4.42912 | -6 ft | 12 kts | 57° |
| 2026-05-04 16:38 | 51.95300 | 4.43056 | -6 ft | 50 kts | 58° |
| 2026-05-04 16:39 | 51.96992 | 4.47186 | 1048 ft | 194 kts | 53° |
| 2026-05-04 16:39 | 51.98467 | 4.50926 | 3082 ft | 193 kts | 57° |
| 2026-05-04 16:40 | 51.99808 | 4.54436 | 5225 ft | 183 kts | 57° |
| 2026-05-04 16:40 | 52.00341 | 4.58844 | 6217 ft | 222 kts | 103° |
| 2026-05-04 16:41 | 51.98872 | 4.62973 | 7999 ft | 203 kts | 139° |
| 2026-05-04 16:41 | 51.94469 | 4.66894 | 8504 ft | 289 kts | 156° |
| 2026-05-04 16:42 | 51.88517 | 4.71441 | 8861 ft | 320 kts | 153° |
| 2026-05-04 16:43 | 51.84710 | 4.74577 | 8317 ft | 295 kts | 153° |
| 2026-05-04 16:43 | 51.81214 | 4.77634 | 7783 ft | 281 kts | 139° |
| 2026-05-04 16:43 | 51.79877 | 4.79900 | 7558 ft | 278 kts | 131° |
| 2026-05-04 16:44 | 51.74749 | 4.89363 | 6976 ft | 284 kts | 131° |
| 2026-05-04 16:45 | 51.72157 | 4.94082 | 6954 ft | 279 kts | 130° |
| 2026-05-04 16:46 | 51.69631 | 5.02481 | 6973 ft | 281 kts | 112° |
| 2026-05-04 16:46 | 51.68097 | 5.08281 | 6963 ft | 281 kts | 113° |
| 2026-05-04 16:47 | 51.66521 | 5.14073 | 6672 ft | 286 kts | 113° |
| 2026-05-04 16:47 | 51.64920 | 5.19872 | 6109 ft | 284 kts | 114° |
| 2026-05-04 16:48 | 51.62500 | 5.28571 | 5113 ft | 282 kts | 114° |
| 2026-05-04 16:48 | 51.61694 | 5.31455 | 4790 ft | 282 kts | 115° |
| 2026-05-04 16:49 | 51.60089 | 5.37192 | 4136 ft | 280 kts | 114° |
| 2026-05-04 16:49 | 51.58496 | 5.42865 | 3482 ft | 279 kts | 114° |
| 2026-05-04 16:50 | 51.56833 | 5.48408 | 2941 ft | 265 kts | 127° |
| 2026-05-04 16:50 | 51.53661 | 5.50255 | 2114 ft | 243 kts | 199° |
| 2026-05-04 16:51 | 51.51894 | 5.46387 | 1607 ft | 222 kts | 258° |
| 2026-05-04 16:51 | 51.51186 | 5.44267 | 1309 ft | 213 kts | 218° |
| 2026-05-04 16:51 | 51.48964 | 5.41779 | 844 ft | 181 kts | 227° |
| 2026-05-04 16:52 | 51.46870 | 5.40337 | 579 ft | 158 kts | 199° |
| 2026-05-04 16:52 | 51.45906 | 5.39576 | 841 ft | 151 kts | 213° |
| 2026-05-04 16:53 | 51.43945 | 5.37507 | 1697 ft | 195 kts | 213° |
| 2026-05-04 16:53 | 51.40245 | 5.36911 | 3996 ft | 216 kts | 143° |
| 2026-05-04 16:54 | 51.39194 | 5.38696 | 4587 ft | 228 kts | 117° |
| 2026-05-04 16:55 | 51.42085 | 5.47033 | 6418 ft | 253 kts | 33° |
| 2026-05-04 16:55 | 51.44961 | 5.49965 | 6262 ft | 240 kts | 33° |
| 2026-05-04 16:56 | 51.47766 | 5.52813 | 5483 ft | 239 kts | 33° |
| 2026-05-04 16:56 | 51.51962 | 5.57073 | 4288 ft | 236 kts | 32° |
| 2026-05-04 16:57 | 51.53341 | 5.58474 | 4012 ft | 233 kts | 32° |
| 2026-05-04 16:57 | 51.56106 | 5.61293 | 3978 ft | 236 kts | 32° |
| 2026-05-04 16:58 | 51.60237 | 5.65512 | 3991 ft | 235 kts | 33° |
| 2026-05-04 16:58 | 51.61664 | 5.66677 | 3901 ft | 228 kts | 10° |
| 2026-05-04 16:59 | 51.64075 | 5.64531 | 3527 ft | 207 kts | 295° |
| 2026-05-04 17:00 | 51.62293 | 5.57083 | 2504 ft | 199 kts | 223° |
| 2026-05-04 17:00 | 51.58970 | 5.53090 | 2479 ft | 199 kts | 214° |
| 2026-05-04 17:01 | 51.56690 | 5.50538 | 2480 ft | 200 kts | 215° |
| 2026-05-04 17:01 | 51.54425 | 5.48001 | 2099 ft | 194 kts | 215° |
| 2026-05-04 17:02 | 51.52263 | 5.45577 | 1587 ft | 184 kts | 216° |
| 2026-05-04 17:02 | 51.50194 | 5.43257 | 1120 ft | 180 kts | 215° |
| 2026-05-04 17:03 | 51.49179 | 5.42120 | 897 ft | 175 kts | 215° |
| 2026-05-04 17:03 | 51.48200 | 5.41021 | 648 ft | 172 kts | 216° |
| 2026-05-04 17:03 | 51.46314 | 5.38906 | 168 ft | 158 kts | 216° |
| 2026-05-04 17:04 | 51.44629 | 5.37022 | 75 ft | 106 kts | 216° |
| 2026-05-04 17:04 | 51.44176 | 5.36514 | 69 ft | 18 kts | 215° |
| 2026-05-04 17:05 | 51.44170 | 5.36279 | 69 ft | 13 kts | 327° |
| 2026-05-04 17:05 | 51.44298 | 5.36371 | 72 ft | 8 kts | 35° |
| 2026-05-04 17:06 | 51.44388 | 5.36472 | 71 ft | 8 kts | 34° |
| 2026-05-04 17:06 | 51.44431 | 5.36520 | 66 ft | 7 kts | 36° |
| 2026-05-04 17:07 | 51.44556 | 5.36660 | 66 ft | 18 kts | 34° |
| 2026-05-04 17:07 | 51.44592 | 5.36700 | 71 ft | 19 kts | 35° |
| 2026-05-04 17:07 | 51.44749 | 5.36876 | 74 ft | 14 kts | 35° |
| 2026-05-04 17:07 | 51.44828 | 5.36965 | 72 ft | 13 kts | 35° |
| 2026-05-04 17:08 | 51.44903 | 5.37048 | 72 ft | 13 kts | 35° |
| 2026-05-04 17:08 | 51.45061 | 5.37225 | 71 ft | 15 kts | 35° |
| 2026-05-04 17:08 | 51.45143 | 5.37317 | 74 ft | 14 kts | 35° |
| 2026-05-04 17:09 | 51.45222 | 5.37405 | 66 ft | 13 kts | 35° |
| 2026-05-04 17:09 | 51.45272 | 5.37462 | 69 ft | 14 kts | 35° |
| 2026-05-04 17:09 | 51.45355 | 5.37555 | 71 ft | 16 kts | 34° |
| 2026-05-04 17:10 | 51.45565 | 5.37791 | 74 ft | 21 kts | 35° |
| 2026-05-04 17:10 | 51.45922 | 5.38191 | 65 ft | 14 kts | 35° |
| 2026-05-04 17:11 | 51.45977 | 5.38253 | 72 ft | 6 kts | 35° |
| 2026-05-04 17:11 | 51.45991 | 5.38278 | 71 ft | 0 kts | 59° |
| 2026-05-04 17:12 | 51.45994 | 5.38298 | 70 ft | 6 kts | 77° |
| 2026-05-04 17:13 | 51.45854 | 5.38640 | 69 ft | 5 kts | 125° |
| 2026-05-04 17:14 | 51.45794 | 5.38778 | 71 ft | 5 kts | 118° |
| 2026-05-04 17:14 | 51.45799 | 5.38833 | 70 ft | 5 kts | 52° |
| 2026-05-04 17:14 | 51.45796 | 5.38957 | 68 ft | 7 kts | 125° |
| 2026-05-04 17:15 | 51.45786 | 5.38980 | 73 ft | 0 kts | 125° |